Time;durP1;ratioP1;P1;durP2;ratioP2;P2;SDS_P1;SDS_P2;PMS_P1;PMS_P2;Temp;Humidity;BMP_temperature;BMP_pressure;BME280_temperature;BME280_humidity;BME280_pressure;Samples;Min_cycle;Max_cycle;Signal;HPM_P1;HPM_P2
2022/02/14 00:00:53;;;;;;;0.40;0.40;;;;;;;;;;4974973;28;20810;-60
2022/02/14 00:03:19;;;;;;;0.47;0.47;;;;;;;;;;4975103;28;20187;-60
2022/02/14 00:05:45;;;;;;;0.47;0.47;;;;;;;;;;4978189;28;20905;-59
2022/02/14 00:08:12;;;;;;;0.50;0.50;;;;;;;;;;4974363;28;20779;-59
2022/02/14 00:10:38;;;;;;;0.40;0.40;;;;;;;;;;4974751;28;20424;-60
2022/02/14 00:13:04;;;;;;;0.50;0.50;;;;;;;;;;4974981;28;20186;-59
2022/02/14 00:15:30;;;;;;;0.50;0.50;;;;;;;;;;4974790;28;20629;-60
2022/02/14 00:17:56;;;;;;;0.40;0.40;;;;;;;;;;4974709;28;20178;-61
2022/02/14 00:20:22;;;;;;;0.50;0.50;;;;;;;;;;4974449;28;20208;-60
2022/02/14 00:22:48;;;;;;;0.50;0.50;;;;;;;;;;4974589;28;20178;-62
2022/02/14 00:25:14;;;;;;;0.40;0.40;;;;;;;;;;4974719;28;20418;-59
2022/02/14 00:27:40;;;;;;;0.50;0.50;;;;;;;;;;4974536;28;20461;-59
2022/02/14 00:30:06;;;;;;;0.40;0.40;;;;;;;;;;4974382;28;20193;-56
2022/02/14 00:32:34;;;;;;;0.50;0.50;;;;;;;;;;4974562;28;20252;-59
2022/02/14 00:34:59;;;;;;;0.45;0.45;;;;;;;;;;4980795;28;20173;-60
2022/02/14 00:37:25;;;;;;;0.50;0.50;;;;;;;;;;4981833;28;20175;-57
2022/02/14 00:39:51;;;;;;;0.50;0.50;;;;;;;;;;4974124;28;20937;-57
2022/02/14 00:42:17;;;;;;;0.40;0.40;;;;;;;;;;4974046;28;20427;-61
2022/02/14 00:44:43;;;;;;;0.50;0.50;;;;;;;;;;4974231;28;20561;-60
2022/02/14 00:47:09;;;;;;;0.50;0.50;;;;;;;;;;4974137;28;20472;-58
2022/02/14 00:49:35;;;;;;;0.50;0.50;;;;;;;;;;4974008;28;20465;-62
2022/02/14 00:52:01;;;;;;;0.45;0.45;;;;;;;;;;4973818;28;20175;-60
2022/02/14 00:54:27;;;;;;;0.50;0.50;;;;;;;;;;4974022;28;20177;-60
2022/02/14 00:56:53;;;;;;;0.50;0.50;;;;;;;;;;4974375;28;20543;-60
2022/02/14 00:59:19;;;;;;;0.43;0.43;;;;;;;;;;4973981;28;20438;-61
2022/02/14 01:01:45;;;;;;;0.50;0.50;;;;;;;;;;4973731;28;20501;-59
2022/02/14 01:04:11;;;;;;;0.47;0.47;;;;;;;;;;4973759;28;20262;-60
2022/02/14 01:06:37;;;;;;;0.50;0.50;;;;;;;;;;4973613;28;20457;-61
2022/02/14 01:09:03;;;;;;;0.40;0.40;;;;;;;;;;5017025;23;20292;-62
2022/02/14 01:11:29;;;;;;;0.40;0.40;;;;;;;;;;4992449;28;20855;-61
2022/02/14 01:13:55;;;;;;;0.50;0.50;;;;;;;;;;4993176;28;20183;-61
2022/02/14 01:16:21;;;;;;;0.47;0.47;;;;;;;;;;4993074;28;20447;-60
2022/02/14 01:18:48;;;;;;;0.50;0.50;;;;;;;;;;4992725;28;20417;-61
2022/02/14 01:21:15;;;;;;;0.50;0.50;;;;;;;;;;4992697;28;20471;-61
2022/02/14 01:23:41;;;;;;;0.40;0.40;;;;;;;;;;4992967;28;20269;-61
2022/02/14 01:26:07;;;;;;;0.40;0.40;;;;;;;;;;4992796;28;20209;-61
2022/02/14 01:28:33;;;;;;;0.40;0.40;;;;;;;;;;4992848;28;20440;-61
2022/02/14 01:30:58;;;;;;;0.40;0.40;;;;;;;;;;4992815;28;20773;-60
2022/02/14 01:33:24;;;;;;;0.50;0.50;;;;;;;;;;4992833;28;20264;-61
2022/02/14 01:35:50;;;;;;;0.50;0.50;;;;;;;;;;4992687;28;20449;-61
2022/02/14 01:38:17;;;;;;;0.50;0.50;;;;;;;;;;4992713;28;20432;-61
2022/02/14 01:40:43;;;;;;;0.50;0.50;;;;;;;;;;4992557;28;20481;-61
2022/02/14 01:43:09;;;;;;;0.40;0.40;;;;;;;;;;4992751;28;20173;-60
2022/02/14 01:45:35;;;;;;;0.50;0.50;;;;;;;;;;4992729;28;20281;-61
2022/02/14 01:48:02;;;;;;;0.50;0.50;;;;;;;;;;4992577;28;20231;-61
2022/02/14 01:50:28;;;;;;;0.50;0.50;;;;;;;;;;4992134;28;20281;-61
2022/02/14 01:52:54;;;;;;;0.50;0.50;;;;;;;;;;4992576;28;20451;-61
2022/02/14 01:55:20;;;;;;;0.60;0.60;;;;;;;;;;4992495;28;20413;-61
2022/02/14 01:57:46;;;;;;;0.50;0.50;;;;;;;;;;4992539;28;20212;-59
2022/02/14 02:00:13;;;;;;;0.50;0.50;;;;;;;;;;4992309;28;20209;-61
2022/02/14 02:02:39;;;;;;;0.50;0.50;;;;;;;;;;4992566;28;20498;-61
2022/02/14 02:05:06;;;;;;;0.50;0.50;;;;;;;;;;4992404;28;20177;-62
2022/02/14 02:07:32;;;;;;;0.50;0.50;;;;;;;;;;4992295;28;20232;-61
2022/02/14 02:09:59;;;;;;;0.50;0.50;;;;;;;;;;4992344;28;20232;-61
2022/02/14 02:12:25;;;;;;;0.50;0.50;;;;;;;;;;4992394;28;20207;-62
2022/02/14 02:14:51;;;;;;;0.50;0.50;;;;;;;;;;4992561;28;20178;-61
2022/02/14 02:17:18;;;;;;;0.50;0.50;;;;;;;;;;4991872;28;20521;-60
2022/02/14 02:19:44;;;;;;;0.50;0.50;;;;;;;;;;4992206;28;21159;-61
2022/02/14 02:22:09;;;;;;;0.40;0.40;;;;;;;;;;4991998;28;20188;-62
2022/02/14 02:24:44;;;;;;;0.50;0.50;;;;;;;;;;4992221;28;20788;-62
2022/02/14 02:27:10;;;;;;;0.50;0.50;;;;;;;;;;4992189;28;20512;-61
2022/02/14 02:29:39;;;;;;;0.50;0.50;;;;;;;;;;4992057;28;20232;-59
2022/02/14 02:32:06;;;;;;;0.50;0.50;;;;;;;;;;4995815;28;20412;-61
2022/02/14 02:34:32;;;;;;;0.50;0.50;;;;;;;;;;4995781;28;20187;-60
2022/02/14 02:36:59;;;;;;;0.50;0.50;;;;;;;;;;4995628;28;20176;-59
2022/02/14 02:39:26;;;;;;;0.50;0.50;;;;;;;;;;4995873;28;20231;-60
2022/02/14 02:41:52;;;;;;;0.50;0.50;;;;;;;;;;4995837;28;20182;-60
2022/02/14 02:44:18;;;;;;;0.40;0.40;;;;;;;;;;4996337;28;20188;-61
2022/02/14 02:46:44;;;;;;;0.50;0.50;;;;;;;;;;4995870;28;20257;-61
2022/02/14 02:49:15;;;;;;;0.50;0.50;;;;;;;;;;4996066;28;20202;-60
2022/02/14 02:51:41;;;;;;;0.50;0.50;;;;;;;;;;4995970;28;20182;-61
2022/02/14 02:54:07;;;;;;;0.50;0.50;;;;;;;;;;4996446;28;20877;-61
2022/02/14 02:56:34;;;;;;;0.40;0.40;;;;;;;;;;4996112;28;20186;-60
2022/02/14 02:59:00;;;;;;;0.50;0.50;;;;;;;;;;4996354;28;20560;-60
2022/02/14 03:01:26;;;;;;;0.50;0.50;;;;;;;;;;4995646;28;20177;-62
2022/02/14 03:03:53;;;;;;;0.43;0.43;;;;;;;;;;4995697;28;20185;-61
2022/02/14 03:06:19;;;;;;;0.50;0.50;;;;;;;;;;4995330;28;20197;-60
2022/02/14 03:08:45;;;;;;;0.50;0.50;;;;;;;;;;4995272;28;20223;-60
2022/02/14 03:11:11;;;;;;;0.50;0.50;;;;;;;;;;4995395;28;20180;-61
2022/02/14 03:13:37;;;;;;;0.50;0.50;;;;;;;;;;4995530;28;20420;-60
2022/02/14 03:16:03;;;;;;;0.40;0.40;;;;;;;;;;4995375;28;20416;-61
2022/02/14 03:18:29;;;;;;;0.43;0.43;;;;;;;;;;4995387;28;20422;-61
2022/02/14 03:20:55;;;;;;;0.40;0.40;;;;;;;;;;4995150;28;20181;-60
2022/02/14 03:23:21;;;;;;;0.50;0.50;;;;;;;;;;4995224;28;20420;-61
2022/02/14 03:25:47;;;;;;;0.50;0.50;;;;;;;;;;4998667;28;20184;-61
2022/02/14 03:28:13;;;;;;;0.50;0.50;;;;;;;;;;4995331;28;20420;-59
2022/02/14 03:30:39;;;;;;;0.60;0.60;;;;;;;;;;4994367;28;20514;-59
2022/02/14 03:33:04;;;;;;;0.50;0.50;;;;;;;;;;4993854;28;20420;-59
2022/02/14 03:35:30;;;;;;;0.40;0.40;;;;;;;;;;4994959;28;20440;-59
2022/02/14 03:37:59;;;;;;;0.50;0.50;;;;;;;;;;4994935;28;20428;-60
2022/02/14 03:40:25;;;;;;;0.50;0.50;;;;;;;;;;4994709;28;20444;-60
2022/02/14 03:42:51;;;;;;;0.50;0.50;;;;;;;;;;4993562;28;20189;-61
2022/02/14 03:45:17;;;;;;;0.40;0.40;;;;;;;;;;4994835;28;20542;-60
2022/02/14 03:47:43;;;;;;;0.50;0.50;;;;;;;;;;4994810;28;20470;-61
2022/02/14 03:50:09;;;;;;;0.40;0.40;;;;;;;;;;4994743;28;20308;-60
2022/02/14 03:52:35;;;;;;;0.45;0.45;;;;;;;;;;4994746;28;20444;-60
2022/02/14 03:55:01;;;;;;;0.40;0.40;;;;;;;;;;4994749;28;20263;-61
2022/02/14 03:57:27;;;;;;;0.40;0.40;;;;;;;;;;4994613;28;20427;-60
2022/02/14 03:59:53;;;;;;;0.40;0.40;;;;;;;;;;4994487;28;20202;-61
2022/02/14 04:02:19;;;;;;;0.50;0.50;;;;;;;;;;4994458;28;20208;-62
2022/02/14 04:04:44;;;;;;;0.50;0.50;;;;;;;;;;4994286;28;20880;-61
2022/02/14 04:07:10;;;;;;;0.50;0.50;;;;;;;;;;4993103;28;21088;-61
2022/02/14 04:09:36;;;;;;;0.40;0.40;;;;;;;;;;4994238;28;20960;-61
2022/02/14 04:12:02;;;;;;;0.50;0.50;;;;;;;;;;4992891;28;20404;-61
2022/02/14 04:14:28;;;;;;;0.50;0.50;;;;;;;;;;4994292;28;20822;-61
2022/02/14 04:16:54;;;;;;;0.50;0.50;;;;;;;;;;4994273;28;20181;-60
2022/02/14 04:19:20;;;;;;;0.50;0.50;;;;;;;;;;4994027;28;20824;-61
2022/02/14 04:21:46;;;;;;;0.50;0.50;;;;;;;;;;4993924;28;20404;-61
2022/02/14 04:24:12;;;;;;;0.50;0.50;;;;;;;;;;4994133;28;20912;-61
2022/02/14 04:26:38;;;;;;;0.50;0.50;;;;;;;;;;4993902;28;20490;-61
2022/02/14 04:29:04;;;;;;;0.50;0.50;;;;;;;;;;4994055;28;20436;-61
2022/02/14 04:31:30;;;;;;;0.50;0.50;;;;;;;;;;4993901;28;20409;-60
2022/02/14 04:33:56;;;;;;;0.40;0.40;;;;;;;;;;4993938;28;20491;-59
2022/02/14 04:36:22;;;;;;;0.50;0.50;;;;;;;;;;4994094;28;20420;-61
2022/02/14 04:38:47;;;;;;;0.50;0.50;;;;;;;;;;4993855;28;20415;-61
2022/02/14 04:41:13;;;;;;;0.50;0.50;;;;;;;;;;4993796;28;20499;-61
2022/02/14 04:43:39;;;;;;;0.50;0.50;;;;;;;;;;4993809;28;20416;-62
2022/02/14 04:46:05;;;;;;;0.50;0.50;;;;;;;;;;4993720;28;20459;-61
2022/02/14 04:48:31;;;;;;;0.60;0.60;;;;;;;;;;4993449;28;20420;-60
2022/02/14 04:50:57;;;;;;;0.50;0.50;;;;;;;;;;4993356;28;20477;-61
2022/02/14 04:53:23;;;;;;;0.50;0.50;;;;;;;;;;4993002;28;20186;-61
2022/02/14 04:55:49;;;;;;;0.50;0.50;;;;;;;;;;4993620;28;20962;-61
2022/02/14 04:58:15;;;;;;;0.60;0.60;;;;;;;;;;4993360;28;20403;-59
2022/02/14 05:00:41;;;;;;;0.50;0.50;;;;;;;;;;4993138;28;20466;-61
2022/02/14 05:03:07;;;;;;;0.50;0.50;;;;;;;;;;4993366;28;20405;-61
2022/02/14 05:05:33;;;;;;;0.50;0.50;;;;;;;;;;4993269;28;20815;-59
2022/02/14 05:07:59;;;;;;;0.50;0.50;;;;;;;;;;4993252;28;20476;-61
2022/02/14 05:10:25;;;;;;;0.50;0.50;;;;;;;;;;4992820;28;20527;-61
2022/02/14 05:12:51;;;;;;;0.50;0.50;;;;;;;;;;4993064;28;20444;-61
2022/02/14 05:15:17;;;;;;;0.40;0.40;;;;;;;;;;4993155;28;20409;-60
2022/02/14 05:17:43;;;;;;;0.50;0.50;;;;;;;;;;4992980;28;20974;-59
2022/02/14 05:20:09;;;;;;;0.50;0.50;;;;;;;;;;4992798;28;21037;-60
2022/02/14 05:22:35;;;;;;;0.50;0.50;;;;;;;;;;4993080;28;20404;-60
2022/02/14 05:25:01;;;;;;;0.50;0.50;;;;;;;;;;4992824;28;20547;-61
2022/02/14 05:27:27;;;;;;;0.50;0.50;;;;;;;;;;4992795;28;20550;-60
2022/02/14 05:29:52;;;;;;;0.50;0.50;;;;;;;;;;4992806;28;20433;-61
2022/02/14 05:32:18;;;;;;;0.50;0.50;;;;;;;;;;4992671;28;20473;-61
2022/02/14 05:34:44;;;;;;;0.50;0.50;;;;;;;;;;4992749;28;20405;-59
2022/02/14 05:37:10;;;;;;;0.50;0.50;;;;;;;;;;4992484;28;20434;-60
2022/02/14 05:39:36;;;;;;;0.50;0.50;;;;;;;;;;4992577;28;20447;-61
2022/02/14 05:42:03;;;;;;;0.40;0.40;;;;;;;;;;4992323;28;20177;-59
2022/02/14 05:44:29;;;;;;;0.40;0.40;;;;;;;;;;4992063;28;20183;-61
2022/02/14 05:46:55;;;;;;;0.50;0.50;;;;;;;;;;4992123;28;20280;-59
2022/02/14 05:49:21;;;;;;;0.50;0.50;;;;;;;;;;4992481;28;20201;-61
2022/02/14 05:51:47;;;;;;;0.50;0.50;;;;;;;;;;4992188;28;20792;-60
2022/02/14 05:54:13;;;;;;;0.50;0.50;;;;;;;;;;4992413;28;20920;-61
2022/02/14 05:56:39;;;;;;;0.50;0.50;;;;;;;;;;4992433;28;20420;-61
2022/02/14 05:59:05;;;;;;;0.60;0.60;;;;;;;;;;4992280;28;20534;-58
2022/02/14 06:01:31;;;;;;;0.50;0.50;;;;;;;;;;4991957;28;20434;-60
2022/02/14 06:03:57;;;;;;;0.50;0.50;;;;;;;;;;4991981;28;20188;-62
2022/02/14 06:06:23;;;;;;;0.50;0.50;;;;;;;;;;4990591;28;20209;-61
2022/02/14 06:08:49;;;;;;;0.50;0.50;;;;;;;;;;4991870;28;20463;-60
2022/02/14 06:11:15;;;;;;;0.40;0.40;;;;;;;;;;4991634;28;20599;-61
2022/02/14 06:13:41;;;;;;;0.50;0.50;;;;;;;;;;4992061;28;20451;-60
2022/02/14 06:16:07;;;;;;;0.50;0.50;;;;;;;;;;4991983;28;20428;-61
2022/02/14 06:18:33;;;;;;;0.50;0.50;;;;;;;;;;4991814;28;20552;-61
2022/02/14 06:20:59;;;;;;;0.50;0.50;;;;;;;;;;4991638;28;20459;-61
2022/02/14 06:23:27;;;;;;;0.50;0.50;;;;;;;;;;4992050;28;20475;-61
2022/02/14 06:25:53;;;;;;;0.50;0.50;;;;;;;;;;4991856;28;20474;-61
2022/02/14 06:28:18;;;;;;;0.50;0.50;;;;;;;;;;4991409;28;20197;-60
2022/02/14 06:30:46;;;;;;;0.50;0.50;;;;;;;;;;4990554;28;20920;-60
2022/02/14 06:33:13;;;;;;;0.50;0.50;;;;;;;;;;4992147;28;20947;-61
2022/02/14 06:35:39;;;;;;;0.50;0.50;;;;;;;;;;4991980;28;20597;-60
2022/02/14 06:38:05;;;;;;;0.50;0.50;;;;;;;;;;4992022;28;20182;-61
2022/02/14 06:40:31;;;;;;;0.50;0.50;;;;;;;;;;4991244;28;20436;-61
2022/02/14 06:42:57;;;;;;;0.50;0.50;;;;;;;;;;4992021;28;20595;-61
2022/02/14 06:45:23;;;;;;;0.50;0.50;;;;;;;;;;4993068;28;20440;-61
2022/02/14 06:47:49;;;;;;;0.40;0.40;;;;;;;;;;4993479;28;20817;-58
2022/02/14 06:50:17;;;;;;;0.50;0.50;;;;;;;;;;4990793;28;20437;-59
2022/02/14 06:52:43;;;;;;;0.50;0.50;;;;;;;;;;4991491;28;20486;-59
2022/02/14 06:55:09;;;;;;;0.50;0.50;;;;;;;;;;4990190;28;20193;-60
2022/02/14 06:57:36;;;;;;;0.52;0.52;;;;;;;;;;4990575;28;20195;-59
2022/02/14 07:00:04;;;;;;;0.50;0.50;;;;;;;;;;4991469;28;20622;-61
2022/02/14 07:02:30;;;;;;;0.50;0.50;;;;;;;;;;4990961;28;20195;-61
2022/02/14 07:04:56;;;;;;;0.50;0.50;;;;;;;;;;4991765;28;20185;-60
2022/02/14 07:07:22;;;;;;;0.50;0.50;;;;;;;;;;4990225;28;20468;-61
2022/02/14 07:12:19;;;;;;;0.50;0.50;;;;;;;;;;5016054;23;20584;-61
2022/02/14 07:14:45;;;;;;;0.40;0.40;;;;;;;;;;5004149;28;20473;-58
2022/02/14 07:17:12;;;;;;;0.40;0.40;;;;;;;;;;5013752;28;20434;-60
2022/02/14 07:19:39;;;;;;;0.50;0.50;;;;;;;;;;5015047;28;20933;-59
2022/02/14 07:22:05;;;;;;;0.50;0.50;;;;;;;;;;5026554;28;20206;-56
2022/02/14 07:24:31;;;;;;;0.50;0.50;;;;;;;;;;5023872;28;20180;-61
2022/02/14 07:26:57;;;;;;;0.50;0.50;;;;;;;;;;5033121;28;20633;-61
2022/02/14 07:29:23;;;;;;;0.47;0.47;;;;;;;;;;5031276;28;20712;-58
2022/02/14 07:31:49;;;;;;;0.60;0.60;;;;;;;;;;5032523;28;20668;-60
2022/02/14 07:34:15;;;;;;;0.50;0.50;;;;;;;;;;5032697;28;20208;-60
2022/02/14 07:36:41;;;;;;;0.50;0.50;;;;;;;;;;5034022;28;20207;-60
2022/02/14 07:39:08;;;;;;;0.50;0.50;;;;;;;;;;5033818;28;20415;-61
2022/02/14 07:41:36;;;;;;;0.40;0.40;;;;;;;;;;5033525;28;20944;-61
2022/02/14 07:44:02;;;;;;;0.50;0.50;;;;;;;;;;5033473;28;20274;-61
2022/02/14 07:46:27;;;;;;;0.50;0.50;;;;;;;;;;5034048;28;20281;-61
2022/02/14 07:48:53;;;;;;;0.40;0.40;;;;;;;;;;5029344;28;20473;-59
2022/02/14 07:51:19;;;;;;;0.50;0.50;;;;;;;;;;5012148;28;20435;-61
2022/02/14 07:53:45;;;;;;;0.50;0.50;;;;;;;;;;5014182;28;20923;-61
2022/02/14 07:56:13;;;;;;;0.50;0.50;;;;;;;;;;5014146;28;20462;-61
2022/02/14 07:58:42;;;;;;;0.40;0.40;;;;;;;;;;5014065;28;20226;-60
2022/02/14 08:01:08;;;;;;;0.50;0.50;;;;;;;;;;5013760;28;20280;-60
2022/02/14 08:03:34;;;;;;;0.50;0.50;;;;;;;;;;5013839;28;20180;-61
2022/02/14 08:06:01;;;;;;;0.50;0.50;;;;;;;;;;5012815;28;20212;-61
2022/02/14 08:08:27;;;;;;;0.50;0.50;;;;;;;;;;5013481;28;20413;-61
2022/02/14 08:10:54;;;;;;;0.50;0.50;;;;;;;;;;5012952;28;20589;-60
2022/02/14 08:13:20;;;;;;;0.50;0.50;;;;;;;;;;5013592;28;20548;-60
2022/02/14 08:15:46;;;;;;;0.50;0.50;;;;;;;;;;5013498;28;20224;-61
2022/02/14 08:18:12;;;;;;;0.50;0.50;;;;;;;;;;5012776;28;20212;-61
2022/02/14 08:20:38;;;;;;;0.50;0.50;;;;;;;;;;5013078;28;20232;-61
2022/02/14 08:23:06;;;;;;;0.40;0.40;;;;;;;;;;5013421;28;20524;-60
2022/02/14 08:25:32;;;;;;;0.50;0.50;;;;;;;;;;5013460;28;20184;-61
2022/02/14 08:28:02;;;;;;;0.50;0.50;;;;;;;;;;5013062;28;20201;-61
2022/02/14 08:30:28;;;;;;;0.50;0.50;;;;;;;;;;5012559;28;20447;-61
2022/02/14 08:32:54;;;;;;;0.50;0.50;;;;;;;;;;5013455;28;20627;-61
2022/02/14 08:35:20;;;;;;;0.50;0.50;;;;;;;;;;5013261;28;20256;-61
2022/02/14 08:37:47;;;;;;;0.40;0.40;;;;;;;;;;5012907;28;20977;-61
2022/02/14 08:40:15;;;;;;;0.50;0.50;;;;;;;;;;5012811;28;20860;-60
2022/02/14 08:42:41;;;;;;;0.50;0.50;;;;;;;;;;5013329;28;20181;-61
2022/02/14 08:45:07;;;;;;;0.50;0.50;;;;;;;;;;5013130;28;20197;-61
2022/02/14 08:47:33;;;;;;;0.40;0.40;;;;;;;;;;5011764;28;20812;-61
2022/02/14 08:50:02;;;;;;;0.40;0.40;;;;;;;;;;5012799;28;20220;-58
2022/02/14 08:52:29;;;;;;;0.40;0.40;;;;;;;;;;5013085;28;20472;-61
2022/02/14 08:54:55;;;;;;;0.50;0.50;;;;;;;;;;5012929;28;20173;-61
2022/02/14 08:57:21;;;;;;;0.40;0.40;;;;;;;;;;5012942;28;20182;-62
2022/02/14 08:59:48;;;;;;;0.40;0.40;;;;;;;;;;5012796;28;20208;-61
2022/02/14 09:02:14;;;;;;;0.40;0.40;;;;;;;;;;5012504;28;20204;-62
2022/02/14 09:04:40;;;;;;;0.40;0.40;;;;;;;;;;5012680;28;20201;-62
2022/02/14 09:07:06;;;;;;;0.40;0.40;;;;;;;;;;5012790;28;20711;-63
2022/02/14 09:09:32;;;;;;;0.40;0.40;;;;;;;;;;5012599;28;20170;-63
2022/02/14 09:12:02;;;;;;;0.40;0.40;;;;;;;;;;5012272;28;20455;-62
2022/02/14 09:14:28;;;;;;;0.40;0.40;;;;;;;;;;5012655;28;20648;-61
2022/02/14 09:16:54;;;;;;;0.30;0.30;;;;;;;;;;5012648;28;20185;-62
2022/02/14 09:19:21;;;;;;;0.40;0.40;;;;;;;;;;5012420;28;20205;-62
2022/02/14 09:21:47;;;;;;;0.50;0.50;;;;;;;;;;5012383;28;20580;-62
2022/02/14 09:24:13;;;;;;;0.40;0.40;;;;;;;;;;5012311;28;20227;-62
2022/02/14 09:26:43;;;;;;;0.40;0.40;;;;;;;;;;5011933;28;20208;-61
2022/02/14 09:29:10;;;;;;;0.40;0.40;;;;;;;;;;5012522;28;20652;-62
2022/02/14 09:31:37;;;;;;;0.40;0.40;;;;;;;;;;5010555;28;20576;-62
2022/02/14 09:34:03;;;;;;;0.40;0.40;;;;;;;;;;5012249;28;20166;-62
2022/02/14 09:36:29;;;;;;;0.40;0.40;;;;;;;;;;5012563;28;20221;-60
2022/02/14 09:38:55;;;;;;;0.30;0.30;;;;;;;;;;5012007;28;20433;-62
2022/02/14 09:41:21;;;;;;;0.40;0.40;;;;;;;;;;5010954;28;20515;-59
2022/02/14 09:43:47;;;;;;;0.40;0.40;;;;;;;;;;5012027;28;20500;-61
2022/02/14 09:46:13;;;;;;;0.40;0.40;;;;;;;;;;5012294;28;20185;-61
2022/02/14 09:48:40;;;;;;;0.47;0.47;;;;;;;;;;5010702;28;20204;-61
2022/02/14 09:51:07;;;;;;;0.40;0.40;;;;;;;;;;5011606;28;20194;-61
2022/02/14 09:53:33;;;;;;;0.40;0.40;;;;;;;;;;5012036;28;20177;-61
2022/02/14 09:55:59;;;;;;;0.40;0.40;;;;;;;;;;5011833;28;20320;-62
2022/02/14 09:58:25;;;;;;;0.40;0.40;;;;;;;;;;5011967;28;20412;-62
2022/02/14 10:00:52;;;;;;;0.40;0.40;;;;;;;;;;5013586;28;20200;-59
2022/02/14 10:03:25;;;;;;;0.40;0.40;;;;;;;;;;5012128;28;20419;-61
2022/02/14 10:05:53;;;;;;;0.40;0.40;;;;;;;;;;5012111;28;20560;-60
2022/02/14 10:08:20;;;;;;;0.40;0.40;;;;;;;;;;5011831;28;20607;-61
2022/02/14 10:10:46;;;;;;;0.40;0.40;;;;;;;;;;5011419;28;20592;-62
2022/02/14 10:13:26;;;;;;;0.40;0.40;;;;;;;;;;5011830;28;20177;-61
2022/02/14 10:15:52;;;;;;;0.40;0.40;;;;;;;;;;5011875;28;20177;-61
2022/02/14 10:18:32;;;;;;;0.50;0.50;;;;;;;;;;5011808;28;20184;-61
2022/02/14 10:21:16;;;;;;;0.40;0.40;;;;;;;;;;5011358;28;20455;-61
2022/02/14 10:24:16;;;;;;;0.40;0.40;;;;;;;;;;5011587;28;20272;-61
2022/02/14 10:26:46;;;;;;;0.40;0.40;;;;;;;;;;4979067;28;20612;-61
2022/02/14 10:29:15;;;;;;;0.40;0.40;;;;;;;;;;5011662;28;20548;-62
2022/02/14 10:31:45;;;;;;;0.35;0.35;;;;;;;;;;5011514;28;20569;-61
2022/02/14 10:34:12;;;;;;;0.30;0.30;;;;;;;;;;5011576;28;20176;-61
2022/02/14 10:36:39;;;;;;;0.40;0.40;;;;;;;;;;5011868;28;20181;-61
2022/02/14 10:39:08;;;;;;;0.40;0.40;;;;;;;;;;5011515;28;20213;-62
2022/02/14 10:41:34;;;;;;;0.40;0.40;;;;;;;;;;5011158;28;20251;-62
2022/02/14 10:44:11;;;;;;;0.40;0.40;;;;;;;;;;5011452;28;20247;-62
2022/02/14 10:46:37;;;;;;;0.40;0.40;;;;;;;;;;5011433;28;20193;-61
2022/02/14 10:49:03;;;;;;;0.40;0.40;;;;;;;;;;5011510;28;20533;-61
2022/02/14 10:51:30;;;;;;;0.40;0.40;;;;;;;;;;5012423;28;20272;-61
2022/02/14 10:53:56;;;;;;;0.40;0.40;;;;;;;;;;5015221;28;20174;-62
2022/02/14 10:56:24;;;;;;;0.40;0.40;;;;;;;;;;5015178;28;20615;-60
2022/02/14 10:58:50;;;;;;;0.40;0.40;;;;;;;;;;5015246;28;20591;-61
2022/02/14 11:01:16;;;;;;;0.40;0.40;;;;;;;;;;5015003;28;20204;-61
2022/02/14 11:03:44;;;;;;;0.40;0.40;;;;;;;;;;5015682;28;20181;-61
2022/02/14 11:06:13;;;;;;;0.40;0.40;;;;;;;;;;5015037;28;20412;-62
2022/02/14 11:08:40;;;;;;;0.40;0.40;;;;;;;;;;5015087;28;20200;-61
2022/02/14 11:11:08;;;;;;;0.40;0.40;;;;;;;;;;5014562;28;20240;-61
2022/02/14 11:13:35;;;;;;;0.40;0.40;;;;;;;;;;5015108;28;20182;-61
2022/02/14 11:16:01;;;;;;;0.40;0.40;;;;;;;;;;5014993;28;20169;-60
2022/02/14 11:18:34;;;;;;;0.40;0.40;;;;;;;;;;5014782;28;20417;-61
2022/02/14 11:21:00;;;;;;;0.40;0.40;;;;;;;;;;5014623;28;20947;-61
2022/02/14 11:23:28;;;;;;;0.40;0.40;;;;;;;;;;5014961;28;20178;-60
2022/02/14 11:26:14;;;;;;;0.40;0.40;;;;;;;;;;5014707;28;20165;-61
2022/02/14 11:28:43;;;;;;;0.40;0.40;;;;;;;;;;5014640;28;20217;-59
2022/02/14 11:31:13;;;;;;;0.30;0.30;;;;;;;;;;5014626;28;20209;-60
2022/02/14 11:33:42;;;;;;;0.40;0.40;;;;;;;;;;5014595;28;20641;-61
2022/02/14 11:36:10;;;;;;;0.40;0.40;;;;;;;;;;5014715;28;20177;-60
2022/02/14 11:38:51;;;;;;;0.40;0.40;;;;;;;;;;5014474;28;20239;-60
2022/02/14 11:41:23;;;;;;;0.40;0.40;;;;;;;;;;5014677;28;20222;-61
2022/02/14 11:43:49;;;;;;;0.40;0.40;;;;;;;;;;5014489;28;20257;-60
2022/02/14 11:46:28;;;;;;;0.40;0.40;;;;;;;;;;5014426;28;20196;-61
2022/02/14 11:49:17;;;;;;;0.40;0.40;;;;;;;;;;5014432;28;20442;-61
2022/02/14 11:51:43;;;;;;;0.40;0.40;;;;;;;;;;5006245;28;20209;-61
2022/02/14 11:54:28;;;;;;;0.40;0.40;;;;;;;;;;5014168;28;20536;-61
2022/02/14 11:56:54;;;;;;;0.40;0.40;;;;;;;;;;5014083;28;20173;-60
2022/02/14 11:59:29;;;;;;;0.40;0.40;;;;;;;;;;5014135;28;20178;-60
2022/02/14 12:01:59;;;;;;;0.40;0.40;;;;;;;;;;5014105;28;20655;-62
2022/02/14 12:04:44;;;;;;;0.40;0.40;;;;;;;;;;5013239;28;20182;-61
2022/02/14 12:07:25;;;;;;;0.40;0.40;;;;;;;;;;5013911;28;20197;-60
2022/02/14 12:09:58;;;;;;;0.40;0.40;;;;;;;;;;5013889;28;20181;-60
2022/02/14 12:12:42;;;;;;;0.40;0.40;;;;;;;;;;5013595;28;20177;-61
2022/02/14 12:20:50;;;;;;;0.50;0.50;;;;;;;;;;5013688;28;20568;-62
2022/02/14 12:23:39;;;;;;;0.40;0.40;;;;;;;;;;5013473;28;20641;-60
2022/02/14 12:26:05;;;;;;;0.40;0.40;;;;;;;;;;5013837;28;20184;-62
2022/02/14 12:28:32;;;;;;;0.40;0.40;;;;;;;;;;5013645;28;20180;-62
2022/02/14 12:30:58;;;;;;;0.40;0.40;;;;;;;;;;5013589;28;20667;-62
2022/02/14 12:33:25;;;;;;;0.40;0.40;;;;;;;;;;5013470;28;20629;-62
2022/02/14 12:35:52;;;;;;;0.40;0.40;;;;;;;;;;5013428;28;20560;-62
2022/02/14 12:38:18;;;;;;;0.40;0.40;;;;;;;;;;5012875;28;20247;-62
2022/02/14 12:40:44;;;;;;;0.40;0.40;;;;;;;;;;5013273;28;20197;-62
2022/02/14 12:43:10;;;;;;;0.40;0.40;;;;;;;;;;5013257;28;20235;-62
2022/02/14 12:45:36;;;;;;;0.40;0.40;;;;;;;;;;5013359;28;20416;-62
2022/02/14 12:48:02;;;;;;;0.40;0.40;;;;;;;;;;5013072;28;20206;-63
2022/02/14 12:50:38;;;;;;;0.40;0.40;;;;;;;;;;5012769;28;20206;-63
2022/02/14 12:53:10;;;;;;;0.40;0.40;;;;;;;;;;5013108;28;20711;-62
2022/02/14 12:55:36;;;;;;;0.40;0.40;;;;;;;;;;5013196;28;20507;-62
2022/02/14 12:58:02;;;;;;;0.40;0.40;;;;;;;;;;5013071;28;20204;-63
2022/02/14 13:00:28;;;;;;;0.40;0.40;;;;;;;;;;5012517;28;20560;-62
2022/02/14 13:02:57;;;;;;;0.40;0.40;;;;;;;;;;5013012;28;20178;-62
2022/02/14 13:05:23;;;;;;;0.40;0.40;;;;;;;;;;5012940;28;20421;-62
2022/02/14 13:07:49;;;;;;;0.40;0.40;;;;;;;;;;5012753;28;20287;-62
2022/02/14 13:10:18;;;;;;;0.40;0.40;;;;;;;;;;5013159;28;20684;-59
2022/02/14 13:12:45;;;;;;;0.40;0.40;;;;;;;;;;5051158;23;21023;-62
2022/02/14 13:15:12;;;;;;;0.40;0.40;;;;;;;;;;4992827;28;20221;-61
2022/02/14 13:17:38;;;;;;;0.50;0.50;;;;;;;;;;4993028;28;20548;-62
2022/02/14 13:20:06;;;;;;;0.40;0.40;;;;;;;;;;4997075;28;20179;-57
2022/02/14 13:22:38;;;;;;;0.40;0.40;;;;;;;;;;4992645;28;20798;-61
2022/02/14 13:25:19;;;;;;;0.40;0.40;;;;;;;;;;4993306;28;20178;-61
2022/02/14 13:27:47;;;;;;;0.40;0.40;;;;;;;;;;4992288;28;20206;-62
2022/02/14 13:30:14;;;;;;;0.40;0.40;;;;;;;;;;4992589;28;20166;-61
2022/02/14 13:32:45;;;;;;;0.40;0.40;;;;;;;;;;4992838;28;20277;-62
2022/02/14 13:35:21;;;;;;;0.40;0.40;;;;;;;;;;4992743;28;20182;-61
2022/02/14 13:37:53;;;;;;;0.40;0.40;;;;;;;;;;4992476;28;20163;-62
2022/02/14 13:40:25;;;;;;;0.40;0.40;;;;;;;;;;4991809;28;20492;-62
2022/02/14 13:42:52;;;;;;;0.50;0.50;;;;;;;;;;5011726;28;20184;-60
2022/02/14 13:45:19;;;;;;;0.40;0.40;;;;;;;;;;5012217;28;20518;-61
2022/02/14 13:47:45;;;;;;;0.40;0.40;;;;;;;;;;5012038;28;20197;-62
2022/02/14 13:50:24;;;;;;;0.40;0.40;;;;;;;;;;5011644;28;20224;-62
2022/02/14 13:52:51;;;;;;;0.40;0.40;;;;;;;;;;5011945;28;20178;-60
2022/02/14 13:55:18;;;;;;;0.40;0.40;;;;;;;;;;5011520;28;20223;-62
2022/02/14 13:57:45;;;;;;;0.40;0.40;;;;;;;;;;5012142;28;20553;-62
2022/02/14 14:00:30;;;;;;;0.40;0.40;;;;;;;;;;5011915;28;20480;-61
2022/02/14 14:03:00;;;;;;;0.40;0.40;;;;;;;;;;5012171;28;20644;-62
2022/02/14 14:05:26;;;;;;;0.50;0.50;;;;;;;;;;5011588;28;20185;-63
2022/02/14 14:07:52;;;;;;;0.40;0.40;;;;;;;;;;5011793;28;20201;-63
2022/02/14 14:10:18;;;;;;;0.40;0.40;;;;;;;;;;5011568;28;20170;-62
2022/02/14 14:12:45;;;;;;;0.40;0.40;;;;;;;;;;5011753;28;20488;-62
2022/02/14 14:15:11;;;;;;;0.40;0.40;;;;;;;;;;5011446;28;20228;-62
2022/02/14 14:17:37;;;;;;;0.40;0.40;;;;;;;;;;5011874;28;20178;-62
2022/02/14 14:20:03;;;;;;;0.40;0.40;;;;;;;;;;5011717;28;20416;-62
2022/02/14 14:22:32;;;;;;;0.40;0.40;;;;;;;;;;5011587;28;20464;-62
2022/02/14 14:25:00;;;;;;;0.40;0.40;;;;;;;;;;5011689;28;20193;-61
2022/02/14 14:27:26;;;;;;;0.40;0.40;;;;;;;;;;5014535;28;20587;-62
2022/02/14 14:29:52;;;;;;;0.40;0.40;;;;;;;;;;5015735;28;20264;-62
2022/02/14 14:32:18;;;;;;;0.40;0.40;;;;;;;;;;5015533;28;20700;-62
2022/02/14 14:34:44;;;;;;;0.40;0.40;;;;;;;;;;5015578;28;20407;-62
2022/02/14 14:37:10;;;;;;;0.40;0.40;;;;;;;;;;5015772;28;20256;-62
2022/02/14 14:39:37;;;;;;;0.50;0.50;;;;;;;;;;5016005;28;20672;-62
2022/02/14 14:42:04;;;;;;;0.40;0.40;;;;;;;;;;5015124;28;20205;-62
2022/02/14 14:44:30;;;;;;;0.40;0.40;;;;;;;;;;5015538;28;20550;-62
2022/02/14 14:46:56;;;;;;;0.40;0.40;;;;;;;;;;5015365;28;20209;-62
2022/02/14 14:49:22;;;;;;;0.40;0.40;;;;;;;;;;5015358;28;20403;-62
2022/02/14 14:51:48;;;;;;;0.40;0.40;;;;;;;;;;5014938;28;20229;-62